Time;durP1;ratioP1;P1;durP2;ratioP2;P2;SDS_P1;SDS_P2;PMS_P1;PMS_P2;Temp;Humidity;BMP_temperature;BMP_pressure;BME280_temperature;BME280_humidity;BME280_pressure;Samples;Min_cycle;Max_cycle;Signal;HPM_P1;HPM_P2
2022/05/08 00:02:04;;;;;;;;;;;;;;;;;;;;;
2022/05/08 00:04:32;;;;;;;9.88;3.33;;;;;;;12.92;71.57;102439.69;5055993;28;20479;-87
2022/05/08 00:06:58;;;;;;;9.15;3.40;;;;;;;12.87;71.82;102432.06;5036976;28;20049;-87
2022/05/08 00:09:23;;;;;;;8.47;3.87;;;;;;;12.82;72.13;102421.72;5053468;28;20465;-87
2022/05/08 00:11:52;;;;;;;8.73;4.00;;;;;;;12.91;72.14;102432.53;5053194;28;20033;-87
2022/05/08 00:14:17;;;;;;;9.65;3.90;;;;;;;12.81;72.41;102425.50;5053565;28;20473;-87
2022/05/08 00:16:45;;;;;;;8.33;4.03;;;;;;;12.81;72.41;102430.97;5053335;28;20120;-87
2022/05/08 00:19:13;;;;;;;11.32;4.95;;;;;;;12.85;72.44;102433.31;5052683;28;20041;-87
2022/05/08 00:21:41;;;;;;;9.25;3.90;;;;;;;12.73;72.74;102417.44;5052995;28;20032;-87
2022/05/08 00:24:09;;;;;;;8.80;4.15;;;;;;;12.78;72.72;102435.94;5053469;28;20037;-87
2022/05/08 00:26:34;;;;;;;8.52;3.90;;;;;;;12.69;72.96;102418.03;5053160;28;20040;-87
2022/05/08 00:29:00;;;;;;;11.40;4.73;;;;;;;12.77;72.94;102434.22;5053388;28;20381;-87
2022/05/08 00:31:25;;;;;;;7.27;4.40;;;;;;;12.70;73.22;102415.09;5052612;28;20036;-87
2022/05/08 00:33:58;;;;;;;10.60;4.80;;;;;;;12.81;72.73;102436.41;5035862;28;20036;-86
2022/05/08 00:36:24;;;;;;;11.55;4.63;;;;;;;12.70;73.27;102423.28;5036131;28;20033;-87
2022/05/08 00:38:49;;;;;;;7.60;4.57;;;;;;;12.69;73.39;102416.13;5052656;28;20087;-87
2022/05/08 00:41:20;;;;;;;8.13;5.03;;;;;;;12.67;73.50;102418.22;5052265;28;20035;-87
2022/05/08 00:43:47;;;;;;;11.57;4.60;;;;;;;12.78;73.58;102438.66;5054247;28;20100;-86
2022/05/08 00:46:14;;;;;;;10.43;5.07;;;;;;;12.73;73.91;102427.50;5052633;28;20033;-86
2022/05/08 00:48:41;;;;;;;9.32;4.57;;;;;;;12.72;73.68;102433.97;5053996;28;20111;-87
2022/05/08 00:51:23;;;;;;;11.30;5.03;;;;;;;12.68;73.47;102433.53;5052743;28;20036;-87
2022/05/08 00:53:53;;;;;;;10.88;5.13;;;;;;;12.61;73.65;102438.88;5052640;28;20033;-87
2022/05/08 00:56:21;;;;;;;15.15;4.80;;;;;;;12.70;73.81;102444.22;5052769;28;20028;-86
2022/05/08 00:58:50;;;;;;;9.13;4.80;;;;;;;12.59;73.89;102435.50;5052965;28;20536;-86
2022/05/08 01:01:18;;;;;;;10.98;5.10;;;;;;;12.58;74.25;102441.16;5052618;28;20028;-87
2022/05/08 01:03:45;;;;;;;10.50;5.05;;;;;;;12.57;74.10;102443.00;5052570;28;20189;-87
2022/05/08 01:06:18;;;;;;;9.50;5.00;;;;;;;12.62;74.33;102439.72;5052813;28;20520;-87
2022/05/08 01:08:57;;;;;;;8.77;4.88;;;;;;;12.54;74.46;102437.94;5052780;28;20040;-87
2022/05/08 01:11:23;;;;;;;11.53;5.60;;;;;;;12.59;73.84;102451.84;5052205;28;20247;-87
2022/05/08 01:13:50;;;;;;;10.88;5.47;;;;;;;12.47;74.04;102431.56;5035438;28;20143;-87
2022/05/08 01:16:21;;;;;;;8.60;5.07;;;;;;;12.58;73.65;102452.03;5053665;28;20041;-87
2022/05/08 01:18:50;;;;;;;13.93;5.57;;;;;;;12.43;73.86;102438.41;5052429;28;20021;-87
2022/05/08 01:21:19;;;;;;;13.32;5.60;;;;;;;12.41;73.72;102435.06;5052341;28;20048;-87
2022/05/08 01:23:49;;;;;;;11.57;5.78;;;;;;;12.36;73.74;102432.91;5051999;28;20029;-86
2022/05/08 01:26:21;;;;;;;9.82;6.00;;;;;;;12.34;73.88;102440.41;5052261;28;20025;-87
2022/05/08 01:28:47;;;;;;;10.82;6.35;;;;;;;12.33;73.93;102441.44;5052597;28;20512;-87
2022/05/08 01:31:15;;;;;;;11.73;6.20;;;;;;;12.25;74.10;102445.13;5052327;28;20131;-87
2022/05/08 01:33:43;;;;;;;14.30;6.18;;;;;;;12.26;74.48;102452.22;5053799;28;20036;-87
2022/05/08 01:36:08;;;;;;;10.45;5.90;;;;;;;12.34;74.18;102464.91;5052164;28;20032;-87
2022/05/08 01:38:34;;;;;;;14.20;6.57;;;;;;;12.23;74.24;102446.31;5035634;28;20032;-87
2022/05/08 01:41:04;;;;;;;13.05;6.30;;;;;;;12.19;73.92;102440.38;5052816;28;20029;-87
2022/05/08 01:46:22;;;;;;;12.52;6.38;;;;;;;12.18;74.05;102455.06;5057598;28;20049;-87
2022/05/08 01:48:48;;;;;;;10.33;5.80;;;;;;;12.19;73.88;102464.88;5056166;28;20465;-87
2022/05/08 01:51:24;;;;;;;12.73;6.47;;;;;;;12.09;73.88;102450.72;5039190;28;20037;-87
2022/05/08 01:53:50;;;;;;;12.57;6.60;;;;;;;12.08;74.33;102460.75;5057664;28;20075;-87
2022/05/08 01:56:20;;;;;;;13.90;6.80;;;;;;;12.09;74.47;102461.59;5055869;28;20029;-86
2022/05/08 01:58:48;;;;;;;13.07;6.22;;;;;;;12.02;74.42;102457.94;5055797;28;20444;-87
2022/05/08 02:01:16;;;;;;;12.93;6.65;;;;;;;12.03;74.44;102462.34;5055836;28;20028;-87
2022/05/08 02:03:41;;;;;;;12.10;6.57;;;;;;;11.99;74.65;102463.72;5056780;28;20044;-87
2022/05/08 02:06:09;;;;;;;17.48;6.40;;;;;;;11.99;74.30;102461.00;5055535;28;20037;-87
2022/05/08 02:08:35;;;;;;;14.13;6.78;;;;;;;11.93;74.41;102455.31;5055927;28;20039;-87
2022/05/08 02:11:03;;;;;;;12.77;6.30;;;;;;;11.96;74.64;102477.72;5055500;28;20440;-88
2022/05/08 02:13:36;;;;;;;12.38;6.20;;;;;;;11.91;75.06;102472.78;5038964;28;20061;-87
2022/05/08 02:16:02;;;;;;;13.50;7.28;;;;;;;11.97;75.02;102488.41;5056833;28;20060;-85
2022/05/08 02:18:27;;;;;;;16.50;7.40;;;;;;;11.87;74.72;102472.34;5055609;28;20068;-85
2022/05/08 02:20:53;;;;;;;12.00;6.80;;;;;;;11.83;74.93;102475.59;5055505;28;20029;-85
2022/05/08 02:23:21;;;;;;;12.33;7.30;;;;;;;11.75;75.32;102484.66;5039026;28;20032;-86
2022/05/08 02:25:46;;;;;;;14.50;7.18;;;;;;;11.75;75.51;102490.97;5039667;28;20128;-86
2022/05/08 02:28:12;;;;;;;12.73;7.00;;;;;;;11.72;75.74;102488.63;5055456;28;20074;-85
2022/05/08 02:30:37;;;;;;;13.57;7.00;;;;;;;11.70;75.93;102490.66;5055474;28;20534;-86
2022/05/08 02:33:03;;;;;;;15.30;7.37;;;;;;;11.64;75.99;102485.13;5039532;28;20078;-85
2022/05/08 02:35:33;;;;;;;14.37;8.00;;;;;;;11.61;76.10;102497.19;5038971;28;20405;-85
2022/05/08 02:37:59;;;;;;;12.13;7.63;;;;;;;11.58;76.37;102492.94;5057073;28;20028;-85
2022/05/08 02:40:24;;;;;;;15.77;7.43;;;;;;;11.54;76.70;102488.06;5054919;28;20036;-85
2022/05/08 02:42:50;;;;;;;12.23;7.90;;;;;;;11.49;76.70;102485.91;5038456;28;20451;-86
2022/05/08 02:45:16;;;;;;;12.38;7.65;;;;;;;11.47;76.86;102492.53;5055126;28;20040;-85
2022/05/08 02:47:42;;;;;;;12.93;7.28;;;;;;;11.46;76.72;102493.59;5055464;28;20440;-85
2022/05/08 02:50:11;;;;;;;13.13;7.20;;;;;;;11.47;76.68;102495.25;5056052;28;20432;-85
2022/05/08 02:52:38;;;;;;;14.43;7.45;;;;;;;11.46;76.96;102493.59;5054727;28;20028;-85
2022/05/08 03:00:37;;;;;;;19.17;7.80;;;;;;;11.48;76.82;102499.66;5056190;28;20044;-85
2022/05/08 03:03:07;;;;;;;15.68;7.28;;;;;;;11.47;76.33;102497.97;5054962;28;20056;-85
2022/05/08 03:05:33;;;;;;;13.48;7.03;;;;;;;11.47;76.36;102497.97;5038210;28;20584;-85
2022/05/08 03:07:59;;;;;;;14.20;7.90;;;;;;;11.47;76.76;102498.84;5038413;28;20033;-85
2022/05/08 03:10:24;;;;;;;15.43;7.50;;;;;;;11.46;76.30;102490.88;5054933;28;20123;-85
2022/05/08 03:12:52;;;;;;;19.25;7.95;;;;;;;11.42;75.82;102495.81;5054629;28;20545;-85
2022/05/08 03:15:20;;;;;;;16.50;7.50;;;;;;;11.38;76.01;102497.19;5038462;28;20041;-85
2022/05/08 03:17:46;;;;;;;15.27;7.68;;;;;;;11.36;76.03;102496.53;5055031;28;20350;-85
2022/05/08 03:20:11;;;;;;;17.50;8.17;;;;;;;11.30;76.16;102495.38;5021066;28;20151;-85
2022/05/08 03:22:37;;;;;;;15.90;7.47;;;;;;;11.26;75.87;102488.59;5037723;28;20298;-85
2022/05/08 03:25:02;;;;;;;15.47;7.50;;;;;;;11.24;75.72;102499.66;5054610;28;20103;-85
2022/05/08 03:27:30;;;;;;;15.90;7.85;;;;;;;11.18;75.56;102481.34;5054321;28;20075;-85
2022/05/08 03:29:56;;;;;;;16.30;7.57;;;;;;;11.18;75.44;102500.38;5038093;28;20029;-85
2022/05/08 03:32:21;;;;;;;15.98;6.85;;;;;;;11.18;75.45;102496.81;5054252;28;20043;-85
2022/05/08 03:34:46;;;;;;;13.23;7.33;;;;;;;11.18;75.27;102499.53;5053870;28;20128;-85
2022/05/08 03:37:12;;;;;;;13.47;6.63;;;;;;;11.12;74.75;102498.38;5037925;28;20040;-84
2022/05/08 03:39:37;;;;;;;16.50;6.20;;;;;;;11.10;74.28;102500.44;5055689;28;20381;-86
2022/05/08 03:42:03;;;;;;;14.97;6.97;;;;;;;11.09;74.13;102500.59;5054201;28;20029;-84
2022/05/08 03:44:28;;;;;;;17.30;6.30;;;;;;;11.08;74.69;102498.91;5037675;28;20359;-84
2022/05/08 03:46:54;;;;;;;16.00;6.47;;;;;;;11.06;74.49;102499.94;5038222;28;20036;-85
2022/05/08 03:49:19;;;;;;;16.52;6.45;;;;;;;11.07;73.61;102500.75;5054062;28;20025;-84
2022/05/08 03:51:45;;;;;;;15.17;5.47;;;;;;;11.04;72.37;102506.56;5054180;28;20378;-84
2022/05/08 03:54:10;;;;;;;14.63;5.93;;;;;;;11.04;72.59;102507.41;5054242;28;20104;-84
2022/05/08 03:56:36;;;;;;;17.98;5.57;;;;;;;11.00;72.07;102500.66;5053493;28;20033;-84
2022/05/08 03:59:02;;;;;;;13.17;4.60;;;;;;;10.95;71.92;102497.59;5053797;28;20117;-85
2022/05/08 04:01:27;;;;;;;14.50;4.90;;;;;;;10.95;71.81;102502.19;5036980;28;20040;-85
2022/05/08 04:03:52;;;;;;;16.23;5.15;;;;;;;10.90;71.59;102510.03;5053611;28;20033;-85
2022/05/08 04:06:18;;;;;;;15.53;5.07;;;;;;;10.84;71.21;102504.28;5053566;28;20033;-85
2022/05/08 04:08:44;;;;;;;16.13;4.67;;;;;;;10.83;70.58;102504.47;5053398;28;20112;-85
2022/05/08 04:11:10;;;;;;;14.82;4.25;;;;;;;10.81;70.69;102512.78;5037121;28;20037;-86
2022/05/08 04:13:35;;;;;;;25.40;5.17;;;;;;;10.79;70.41;102511.25;5053491;28;20104;-85
2022/05/08 04:16:16;;;;;;;17.75;4.75;;;;;;;10.78;70.96;102506.88;5036762;28;20029;-85
2022/05/08 04:18:41;;;;;;;13.87;4.57;;;;;;;10.80;70.64;102512.97;5053353;28;20473;-84
2022/05/08 04:21:07;;;;;;;18.55;4.60;;;;;;;10.78;70.90;102515.03;5053258;28;20041;-85
2022/05/08 04:26:16;;;;;;;14.43;4.07;;;;;;;10.81;70.23;102518.22;5053553;28;20047;-85
2022/05/08 04:28:42;;;;;;;17.03;4.27;;;;;;;10.77;69.61;102525.00;5053187;28;20112;-85
2022/05/08 04:31:07;;;;;;;15.80;4.17;;;;;;;10.74;69.82;102519.94;5053487;28;20037;-85
2022/05/08 04:33:33;;;;;;;13.60;3.70;;;;;;;10.73;69.90;102520.94;5036427;28;20283;-85
2022/05/08 04:35:58;;;;;;;17.03;3.63;;;;;;;10.70;70.13;102524.88;5036514;28;20081;-85
2022/05/08 04:38:23;;;;;;;21.00;4.43;;;;;;;10.71;69.94;102526.56;5036375;28;20077;-85
2022/05/08 04:40:49;;;;;;;23.60;4.07;;;;;;;10.70;70.57;102526.72;5053809;28;20118;-85
2022/05/08 04:43:15;;;;;;;16.17;4.10;;;;;;;10.73;70.23;102525.53;5053096;28;20029;-85
2022/05/08 04:45:40;;;;;;;21.73;4.23;;;;;;;10.75;71.04;102528.91;5053285;28;20401;-85
2022/05/08 04:48:06;;;;;;;17.73;4.53;;;;;;;10.68;70.68;102532.34;5052958;28;20465;-85
2022/05/08 04:50:31;;;;;;;18.48;4.05;;;;;;;10.67;70.14;102532.50;5053292;28;20493;-85
2022/05/08 04:52:57;;;;;;;27.37;4.90;;;;;;;10.69;70.31;102536.75;5052878;28;20040;-85
2022/05/08 04:55:22;;;;;;;22.30;3.83;;;;;;;10.72;70.28;102541.00;5019474;28;20048;-85
2022/05/08 04:57:47;;;;;;;20.17;4.10;;;;;;;10.70;70.25;102538.47;5053967;28;20531;-85
2022/05/08 05:00:13;;;;;;;18.23;4.67;;;;;;;10.68;70.79;102545.91;5036333;28;20029;-85
2022/05/08 05:02:39;;;;;;;18.70;4.10;;;;;;;10.66;70.53;102544.41;5035660;28;20029;-85
2022/05/08 05:05:07;;;;;;;20.58;3.92;;;;;;;10.67;70.79;102552.38;5019620;28;20091;-84
2022/05/08 05:07:32;;;;;;;16.58;3.88;;;;;;;10.65;70.86;102543.56;5052464;28;20474;-84
2022/05/08 05:09:58;;;;;;;20.30;3.40;;;;;;;10.67;70.63;102552.38;5036129;28;20040;-84
2022/05/08 05:12:23;;;;;;;19.30;3.87;;;;;;;10.68;70.43;102548.63;5035370;28;20103;-85
2022/05/08 05:14:49;;;;;;;20.27;3.83;;;;;;;10.71;70.42;102550.16;5053502;28;20045;-84
2022/05/08 05:17:14;;;;;;;15.75;3.75;;;;;;;10.75;70.25;102567.78;5053466;28;20041;-85
2022/05/08 05:19:40;;;;;;;23.67;4.17;;;;;;;10.81;70.65;102564.38;5019269;28;20029;-85
2022/05/08 05:22:05;;;;;;;20.43;3.73;;;;;;;10.88;70.38;102565.38;5035782;28;20467;-85
2022/05/08 05:24:30;;;;;;;20.27;4.17;;;;;;;10.91;70.42;102568.75;5035854;28;20068;-85
2022/05/08 05:26:56;;;;;;;20.50;4.07;;;;;;;10.94;69.96;102568.38;5036041;28;20398;-84
2022/05/08 05:29:22;;;;;;;17.92;3.42;;;;;;;10.96;70.18;102571.78;5052689;28;20411;-85
2022/05/08 05:31:47;;;;;;;20.83;4.90;;;;;;;10.98;69.65;102569.75;5053558;28;20068;-84
2022/05/08 05:34:13;;;;;;;21.77;4.53;;;;;;;10.98;69.11;102573.28;5052288;28;20039;-84
2022/05/08 05:36:38;;;;;;;20.00;4.33;;;;;;;11.02;69.75;102580.06;5035640;28;20488;-84
2022/05/08 05:39:04;;;;;;;20.13;4.07;;;;;;;11.04;69.50;102582.59;5052555;28;20381;-84
2022/05/08 05:41:29;;;;;;;20.40;4.32;;;;;;;11.11;69.35;102588.19;5053035;28;20037;-85
2022/05/08 05:43:55;;;;;;;20.60;3.77;;;;;;;11.24;68.95;102597.47;5036244;28;20064;-85
2022/05/08 05:49:04;;;;;;;12.00;3.55;;;;;;;11.37;67.80;102599.63;5053424;28;20052;-85
2022/05/08 05:51:30;;;;;;;21.20;4.60;;;;;;;11.38;66.80;102601.31;5035520;28;20040;-85
2022/05/08 05:53:55;;;;;;;21.77;3.22;;;;;;;11.45;67.12;102606.03;5036016;28;20119;-85
2022/05/08 05:56:21;;;;;;;19.57;3.70;;;;;;;11.52;66.18;102613.28;5052042;28;20434;-85
2022/05/08 05:58:46;;;;;;;24.67;3.87;;;;;;;11.53;65.94;102611.41;5035558;28;20033;-85
2022/05/08 06:01:12;;;;;;;17.57;3.67;;;;;;;11.55;65.73;102617.53;5035510;28;20112;-85
2022/05/08 06:03:38;;;;;;;20.92;3.90;;;;;;;11.63;66.34;102620.19;5051605;28;20473;-85
2022/05/08 06:06:04;;;;;;;21.07;3.47;;;;;;;11.66;66.00;102619.00;5035479;28;20025;-85
2022/05/08 06:08:29;;;;;;;23.98;3.63;;;;;;;11.67;65.75;102626.13;5051941;28;20035;-85
2022/05/08 06:10:55;;;;;;;17.33;3.03;;;;;;;11.69;65.42;102632.22;5053458;28;20476;-84
2022/05/08 06:13:21;;;;;;;15.93;3.93;;;;;;;11.75;65.71;102628.78;5051169;28;20144;-83
2022/05/08 06:15:47;;;;;;;21.00;4.63;;;;;;;11.84;65.12;102629.56;5019524;28;20128;-82
2022/05/08 06:18:12;;;;;;;20.90;3.20;;;;;;;11.92;64.25;102629.53;5052801;28;20433;-83
2022/05/08 06:20:38;;;;;;;21.67;3.60;;;;;;;12.04;63.54;102641.72;5035173;28;20037;-82
2022/05/08 06:23:04;;;;;;;16.40;2.97;;;;;;;12.10;63.04;102631.97;5018352;28;20128;-83
2022/05/08 06:25:29;;;;;;;18.58;3.22;;;;;;;12.13;62.73;102633.50;5018753;28;20070;-83
2022/05/08 06:27:56;;;;;;;15.63;3.63;;;;;;;12.25;63.10;102637.47;5052574;28;20039;-84
2022/05/08 06:30:21;;;;;;;15.57;2.95;;;;;;;12.41;62.33;102633.75;5035717;28;20021;-83
2022/05/08 06:32:46;;;;;;;20.33;3.67;;;;;;;12.53;62.03;102639.59;5055803;28;20071;-82
2022/05/08 06:35:12;;;;;;;19.63;4.05;;;;;;;12.52;61.24;102641.50;5022176;28;20025;-82
2022/05/08 06:37:37;;;;;;;20.40;3.47;;;;;;;12.49;62.12;102639.16;5055557;28;20033;-83
2022/05/08 06:40:03;;;;;;;20.03;3.40;;;;;;;12.67;62.18;102637.94;5038633;28;20029;-83
2022/05/08 06:42:28;;;;;;;17.93;3.80;;;;;;;12.74;61.13;102636.16;5038261;28;20029;-81
2022/05/08 06:44:54;;;;;;;17.93;3.63;;;;;;;12.78;60.22;102654.69;5055227;28;20643;-80
2022/05/08 06:47:19;;;;;;;20.60;3.03;;;;;;;12.80;60.36;102644.44;5055050;28;20113;-81
2022/05/08 06:49:44;;;;;;;17.80;3.50;;;;;;;12.81;60.17;102642.56;5039035;28;20025;-81
2022/05/08 06:52:10;;;;;;;12.00;2.80;;;;;;;12.85;59.48;102640.31;5054727;28;20375;-81
2022/05/08 06:54:35;;;;;;;18.20;3.43;;;;;;;12.89;58.93;102647.06;5055739;28;20036;-82
2022/05/08 06:57:01;;;;;;;17.05;3.45;;;;;;;12.85;59.03;102641.16;5021787;28;20543;-82
2022/05/08 07:02:11;;;;;;;17.27;3.25;;;;;;;12.69;58.82;102653.06;5055213;28;20040;-81
2022/05/08 07:04:40;;;;;;;18.95;3.35;;;;;;;12.50;59.03;102645.44;5056643;28;20029;-80
2022/05/08 07:07:06;;;;;;;19.17;3.30;;;;;;;12.37;59.78;102649.63;5054677;28;20025;-80
2022/05/08 07:09:32;;;;;;;18.30;3.33;;;;;;;12.25;60.68;102653.78;5055906;28;20032;-80
2022/05/08 07:11:58;;;;;;;17.08;3.05;;;;;;;12.16;60.91;102660.34;5054581;28;20037;-82
2022/05/08 07:14:24;;;;;;;22.58;3.25;;;;;;;12.06;61.02;102655.13;5037730;28;20433;-80
2022/05/08 07:16:49;;;;;;;20.97;3.47;;;;;;;11.99;61.13;102659.59;5054372;28;20487;-80
2022/05/08 07:19:14;;;;;;;17.53;4.00;;;;;;;11.93;62.06;102661.19;5038216;28;20037;-80
2022/05/08 07:21:40;;;;;;;12.93;3.47;;;;;;;11.85;61.88;102662.03;5038129;28;20036;-81
2022/05/08 07:24:06;;;;;;;16.77;3.25;;;;;;;11.83;61.85;102660.53;5054283;28;20465;-80
2022/05/08 07:26:32;;;;;;;22.85;3.63;;;;;;;11.81;61.65;102666.16;5054436;28;20025;-81
2022/05/08 07:28:57;;;;;;;25.83;3.67;;;;;;;11.78;61.88;102671.97;5021315;28;20044;-81
2022/05/08 07:31:24;;;;;;;15.10;3.97;;;;;;;11.79;62.38;102668.19;5054335;28;20087;-80
2022/05/08 07:36:12;;;;;;;15.07;3.22;;;;;;;11.80;62.22;102675.34;5038577;28;20173;-81
2022/05/08 07:36:35;;;;;;;18.67;4.07;;;;;;;11.83;62.31;102668.69;5055174;28;20068;-81
2022/05/08 07:39:01;;;;;;;16.23;3.70;;;;;;;11.83;62.23;102676.84;5037514;28;20064;-81
2022/05/08 07:41:27;;;;;;;20.63;3.17;;;;;;;11.85;62.27;102669.34;5037005;28;20049;-85
2022/05/08 07:43:53;;;;;;;19.33;3.50;;;;;;;11.85;61.95;102675.63;5054056;28;20056;-81
2022/05/08 07:46:18;;;;;;;19.60;3.47;;;;;;;11.91;61.59;102682.22;5054396;28;20037;-81
2022/05/08 07:48:45;;;;;;;18.65;3.25;;;;;;;11.95;61.57;102680.88;5037719;28;20449;-81
2022/05/08 07:51:11;;;;;;;16.53;3.67;;;;;;;11.99;62.16;102679.50;5037499;28;20086;-81
2022/05/08 07:53:36;;;;;;;14.95;3.45;;;;;;;11.98;61.42;102683.25;5037992;28;20446;-81
2022/05/08 07:56:02;;;;;;;14.43;3.43;;;;;;;12.05;62.49;102681.50;5055391;28;20090;-81
2022/05/08 07:58:28;;;;;;;18.63;3.93;;;;;;;12.04;61.77;102682.50;5053682;28;20388;-81
2022/05/08 08:00:54;;;;;;;19.48;3.92;;;;;;;12.05;61.85;102683.38;5053800;28;20025;-81
2022/05/08 08:03:24;;;;;;;16.55;3.60;;;;;;;12.09;60.58;102690.13;5037815;28;20033;-81
2022/05/08 08:05:49;;;;;;;19.25;3.50;;;;;;;12.16;61.45;102693.81;5053834;28;20043;-80
2022/05/08 08:08:17;;;;;;;22.03;3.77;;;;;;;12.20;61.01;102689.72;5020507;28;20135;-81
2022/05/08 08:10:42;;;;;;;25.05;4.03;;;;;;;12.21;61.03;102691.44;5053520;28;20028;-80
2022/05/08 08:13:08;;;;;;;20.17;3.77;;;;;;;12.21;60.03;102688.72;5036801;28;20397;-81
2022/05/08 08:15:34;;;;;;;14.83;3.33;;;;;;;12.26;59.50;102688.16;5037409;28;20102;-80
2022/05/08 08:17:59;;;;;;;18.52;3.80;;;;;;;12.29;60.48;102690.50;5054579;28;20025;-81
2022/05/08 08:20:25;;;;;;;14.55;3.38;;;;;;;12.35;60.54;102688.94;5036757;28;20524;-81
2022/05/08 08:22:53;;;;;;;15.37;2.90;;;;;;;12.40;60.49;102697.38;5036577;28;20147;-85
2022/05/08 08:25:20;;;;;;;21.33;4.30;;;;;;;12.38;59.29;102689.41;5053023;28;20033;-85
2022/05/08 08:27:46;;;;;;;22.63;4.07;;;;;;;12.41;59.60;102697.22;5036739;28;20473;-85
2022/05/08 08:30:12;;;;;;;23.63;4.60;;;;;;;12.42;59.00;102698.06;5054022;28;20075;-85
2022/05/08 08:32:37;;;;;;;16.65;3.50;;;;;;;12.48;59.01;102691.06;5035443;28;20451;-85
2022/05/08 08:35:03;;;;;;;17.77;3.73;;;;;;;12.49;59.03;102695.44;5036433;28;20037;-84
2022/05/08 08:37:28;;;;;;;20.50;4.33;;;;;;;12.56;59.64;102683.66;5036408;28;20029;-85
2022/05/08 08:39:54;;;;;;;17.80;3.83;;;;;;;12.61;60.17;102683.94;5036189;28;20278;-84
2022/05/08 08:42:31;;;;;;;16.90;4.00;;;;;;;12.67;60.32;102692.41;5053670;28;20033;-85
2022/05/08 08:47:52;;;;;;;20.52;4.32;;;;;;;12.75;58.81;102692.34;5053826;28;20044;-84
2022/05/08 08:50:20;;;;;;;18.88;3.63;;;;;;;12.80;59.16;102684.47;5054196;28;20032;-84
2022/05/08 08:52:46;;;;;;;17.65;3.50;;;;;;;12.90;57.76;102681.44;5053094;28;20033;-85
2022/05/08 08:55:12;;;;;;;18.13;3.60;;;;;;;12.97;57.40;102694.13;5054278;28;20454;-84
2022/05/08 08:57:37;;;;;;;23.77;4.63;;;;;;;13.00;56.89;102692.94;5036531;28;20041;-84
2022/05/08 09:00:05;;;;;;;14.37;3.67;;;;;;;13.04;57.30;102685.25;5052361;28;20040;-85
2022/05/08 09:02:31;;;;;;;15.40;3.08;;;;;;;13.14;54.82;102692.09;5036225;28;20112;-84
2022/05/08 09:05:04;;;;;;;13.00;3.33;;;;;;;13.21;53.09;102688.63;5036096;28;20116;-85
2022/05/08 09:07:45;;;;;;;19.10;3.85;;;;;;;13.25;54.15;102696.22;5052805;28;20029;-85
2022/05/08 09:10:19;;;;;;;20.13;4.50;;;;;;;13.32;54.58;102688.16;5053842;28;20048;-85
2022/05/08 09:13:03;;;;;;;12.02;2.90;;;;;;;13.39;53.79;102686.41;5053309;28;20029;-85
2022/05/08 09:15:34;;;;;;;12.65;3.00;;;;;;;13.38;51.34;102687.44;5052262;28;20053;-85
2022/05/08 09:18:03;;;;;;;14.73;3.10;;;;;;;13.40;51.99;102682.63;5052640;28;20137;-84
2022/05/08 09:20:33;;;;;;;11.90;2.80;;;;;;;13.55;53.53;102689.94;5052646;28;20099;-84
2022/05/08 09:23:18;;;;;;;14.52;3.08;;;;;;;13.69;53.80;102694.53;5053507;28;20039;-84
2022/05/08 09:25:55;;;;;;;18.48;3.78;;;;;;;13.81;54.00;102683.97;5036214;28;20044;-84
2022/05/08 09:28:30;;;;;;;18.52;3.58;;;;;;;13.91;52.81;102678.22;5052648;28;20123;-85
2022/05/08 09:30:58;;;;;;;19.70;3.03;;;;;;;14.03;50.55;102682.94;5052018;28;20036;-85
2022/05/08 09:33:24;;;;;;;14.23;3.20;;;;;;;14.16;52.15;102681.41;5051874;28;20029;-85
2022/05/08 09:35:50;;;;;;;16.08;3.80;;;;;;;14.35;52.94;102679.88;5052088;28;20044;-85
2022/05/08 09:38:16;;;;;;;14.17;3.33;;;;;;;14.38;50.77;102683.09;5035388;28;20033;-85
2022/05/08 09:40:41;;;;;;;15.05;3.40;;;;;;;14.41;50.68;102678.25;5053324;28;20036;-85
2022/05/08 09:43:26;;;;;;;12.13;3.40;;;;;;;14.44;51.29;102678.72;5035757;28;20115;-84
2022/05/08 09:46:02;;;;;;;17.05;3.17;;;;;;;14.59;51.61;102675.06;5035668;28;20029;-84
2022/05/08 09:48:29;;;;;;;13.32;3.47;;;;;;;14.68;51.20;102674.75;5052016;28;20469;-85
2022/05/08 09:51:00;;;;;;;14.48;3.55;;;;;;;14.86;51.27;102684.34;5035287;28;20040;-85
2022/05/08 09:53:27;;;;;;;14.68;2.85;;;;;;;14.88;50.27;102676.78;5053323;28;20040;-85
2022/05/08 09:55:57;;;;;;;15.37;2.97;;;;;;;14.97;49.34;102674.72;5053173;28;20029;-85
2022/05/08 09:58:23;;;;;;;17.73;3.63;;;;;;;15.13;50.99;102679.88;5051843;28;20036;-85
2022/05/08 10:00:51;;;;;;;14.07;3.22;;;;;;;15.25;49.22;102670.06;5052497;28;20437;-84
2022/05/08 10:03:19;;;;;;;15.50;3.50;;;;;;;15.33;48.28;102670.97;5035727;28;20029;-83
2022/05/08 10:05:46;;;;;;;10.98;2.17;;;;;;;15.45;49.79;102680.25;5054637;28;20465;-79
2022/05/08 10:08:24;;;;;;;12.60;2.70;;;;;;;15.56;51.17;102673.34;5056886;28;20060;-80
2022/05/08 10:13:58;;;;;;;11.77;3.08;;;;;;;15.81;48.78;102670.09;5057117;28;20114;-82
2022/05/08 10:16:42;;;;;;;12.20;2.97;;;;;;;15.86;49.15;102662.97;5057358;28;20048;-82
2022/05/08 10:19:26;;;;;;;13.95;3.22;;;;;;;15.88;48.32;102660.84;5055826;28;20434;-83
2022/05/08 10:22:02;;;;;;;11.07;3.40;;;;;;;15.96;48.50;102666.16;5056093;28;20083;-82
2022/05/08 10:24:35;;;;;;;14.27;2.80;;;;;;;16.03;48.61;102657.09;5057380;28;20033;-82
2022/05/08 10:27:29;;;;;;;11.55;3.15;;;;;;;16.09;47.79;102653.53;5056598;28;20037;-82
2022/05/08 10:29:55;;;;;;;12.40;2.67;;;;;;;16.21;46.14;102649.13;5055716;28;20040;-81
2022/05/08 10:32:35;;;;;;;17.50;3.50;;;;;;;16.35;46.94;102660.94;5055287;28;20192;-82
2022/05/08 10:35:03;;;;;;;11.17;3.00;;;;;;;16.46;46.65;102646.63;5056867;28;20305;-81
2022/05/08 10:37:29;;;;;;;13.00;3.05;;;;;;;16.57;45.14;102656.09;5055323;28;20027;-82
2022/05/08 10:39:56;;;;;;;15.60;2.78;;;;;;;16.72;45.00;102639.41;5038252;28;20045;-82
2022/05/08 10:42:27;;;;;;;9.68;2.72;;;;;;;16.88;45.24;102643.66;5054957;28;20028;-82
2022/05/08 10:44:53;;;;;;;14.32;3.05;;;;;;;17.08;45.23;102637.25;5055407;28;20377;-80
2022/05/08 10:47:36;;;;;;;10.00;2.50;;;;;;;17.28;45.55;102632.53;5056586;28;20060;-81
2022/05/08 10:50:11;;;;;;;10.27;2.60;;;;;;;17.50;44.07;102635.00;5055029;28;20029;-81
2022/05/08 10:52:41;;;;;;;13.98;3.22;;;;;;;17.75;43.50;102637.00;5054963;28;20476;-81
2022/05/08 10:55:08;;;;;;;10.48;3.42;;;;;;;17.95;42.35;102628.63;5054919;28;20029;-81
2022/05/08 10:57:36;;;;;;;11.48;3.42;;;;;;;18.19;42.31;102636.06;5038631;28;20075;-81
2022/05/08 11:00:11;;;;;;;10.47;2.90;;;;;;;18.50;43.62;102647.22;5056385;28;20111;-80
2022/05/08 11:02:40;;;;;;;13.68;3.95;;;;;;;18.80;41.87;102632.78;5054880;28;20119;-81
2022/05/08 11:05:10;;;;;;;12.43;3.28;;;;;;;19.19;40.98;102627.94;5054689;28;20036;-81
2022/05/08 11:07:46;;;;;;;15.95;3.78;;;;;;;19.43;40.79;102632.50;5038848;28;20131;-81
2022/05/08 11:10:21;;;;;;;8.43;2.95;;;;;;;19.66;39.92;102630.91;5056305;28;20362;-81
2022/05/08 11:13:10;;;;;;;11.47;3.33;;;;;;;20.14;39.41;102631.94;5054918;28;20028;-81
2022/05/08 11:15:46;;;;;;;15.55;3.03;;;;;;;22.05;37.66;102634.94;5055221;28;20053;-81
2022/05/08 11:18:23;;;;;;;11.10;2.78;;;;;;;25.67;33.06;102618.84;5054442;28;20090;-81
2022/05/08 11:20:51;;;;;;;10.48;2.80;;;;;;;28.41;25.58;102627.06;5038057;28;20037;-81
2022/05/08 11:23:19;;;;;;;12.68;3.10;;;;;;;30.44;23.62;102618.13;5055646;28;20449;-81
2022/05/08 11:25:47;;;;;;;10.80;2.60;;;;;;;32.24;21.36;102623.69;5055280;28;20124;-81
2022/05/08 11:28:14;;;;;;;9.45;2.65;;;;;;;33.79;19.90;102611.56;5056363;28;20025;-81
2022/05/08 11:30:40;;;;;;;12.18;2.88;;;;;;;35.25;18.45;102610.50;5054488;28;20064;-81
2022/05/08 11:36:05;;;;;;;13.27;3.27;;;;;;;37.51;15.75;102601.69;5055711;28;20079;-81
2022/05/08 11:38:41;;;;;;;10.73;3.60;;;;;;;38.63;17.36;102596.19;5039797;28;20028;-83
2022/05/08 11:41:15;;;;;;;8.52;3.05;;;;;;;38.68;15.86;102591.06;5054982;28;20206;-82
2022/05/08 11:43:42;;;;;;;13.80;3.65;;;;;;;38.79;14.89;102588.50;5055442;28;20465;-82
2022/05/08 11:46:08;;;;;;;10.13;3.58;;;;;;;39.59;13.68;102583.38;5037422;28;20029;-83
2022/05/08 11:48:40;;;;;;;9.63;3.47;;;;;;;40.09;14.13;102585.56;5053958;28;20036;-82